Airfield :
LOGIN :

Register | Disclaimer

   EN    FR    IT 

 










Legend :    VFR   Marginal VFR   IFR   Intensive IFR   Very Intensive IFR
Visi :
Ceiling :
>= 8 km
>= 3000ft
5 to 8 km
1000 to 3000 ft
1500m to 5 km
500 to 1000 ft
800 to 1500m
200 to 500 ft
< 800m
< 200 ft
Symbols :   Thunderstorms  Fog  Heavy snow  Heavy precipitations  Wind > 20 kt
SIGMETs :     Misc.  Thunderstorms  Icing  Turbulence  Mountain Waves  Volcanic Ashes






- Airport Elevation : 499 ft
- IATA code : TLS


LFBO - Toulouse / Blagnac

CURRENT METAR :
  • 180400Z AUTO 27003KT 240V300 1200 0900 R14R/1500D R32L/1300N R14L/1600D R32R/1200D BCFG VV/// M00/M00 Q1032 TEMPO 0200

EXPIRED METARs :
  • 180330Z AUTO VRB02KT 0900 0750 R14R/1000U R32L/1000N R14L/1100N R32R/1000D FZFG VV/// M00/M00 Q1032 TEMPO 0200
  • 180300Z AUTO VRB02KT 0900 0800 R14R/1000D R32L/1000N R14L/1300D R32R/1000N FZFG VV/// M00/M00 Q1032 TEMPO 0200
  • 180230Z AUTO 05003KT 0900 0750 R14R/0900N R32L/1100N R14L/1600D R32R/0900N FZFG VV/// M00/M00 Q1032 TEMPO 0200
  • 180200Z AUTO 06004KT 0900 0750 R14R/0900N R32L/1100U R14L/1500U R32R/0900N FZFG VV/// M00/M00 Q1033 TEMPO 0200
  • 180130Z AUTO 06003KT 030V140 0750 0650 R14R/0900N R32L/0900D R14L/0900U R32R/0800N FZFG VV/// M00/M00 Q1033 TEMPO 0200

TAF TAF LFBO
Valid from the 18 at 00:00 until the 19 at 06:00 UTC


172300Z 1800/1906 VRB02KT 0700 FG VV///
TEMPO 1800/1809 0200
TEMPO 1812/1818 3000 BR OVC003
BECMG 1903/1904 6000 NSW OVC006
TEMPO 1903/1906 1500 -RADZ OVC003
ATIS : +33 5 62 74 66 36



MET'MAP, your aeronautical weather chart ! - Copyright ORBIFLY December 2007 - Disclaimer

ORBIFLY MET'MAP TEAM :

Programming & Development : Alexandra Zaïnal
Concept & original design : Baudouin d'Aumeries
Assistance for programming : Marc-Olivier Méhu
Technical & hardware support : Manuel Goepfert

Contact : metmap@orbifly.com




SOURCES & CREDITS :

   NOAA